Fairbanks, AK (99711)

2:19 AM AKDT on April 23, 2017 (GMT -0800)
Lakloey Hill | | Change Station

Elev 630 ft 64.83 °N, 147.52 °W | Updated 7 minutes ago

Clear
Clear
34.5 °F
Feels Like 34 °F
N
1.0
Wind Variable Wind from NNE

Today
High -- | Low -- °F
--% Chance of Precip.
Yesterday
High -- | Low -- °F
Precip. -- in
Pressure 29.85 in
Visibility 8.0 miles
Clouds Clear
Windchill 34 °F
Dew Point 18 °F
Humidity 52%
Rainfall 0.00 in
Snow Depth Not available.
5:44 AM 9:54 PM
Waning Crescent, 13% visible
METAR PAFB 230958Z AUTO 06007KT 8SM R25R/5500FT CLR 00/M07 A2983 RMK AO2 SLP107 T00041073
Pressure 29.85 in
Visibility 8.0 miles
Clouds Clear
Windchill 34 °F
Dew Point 18 °F
Humidity 52%
Rainfall 0.00 in
Snow Depth Not available.
5:44 AM 9:54 PM
Waning Crescent, 13% visible
METAR PAFB 230958Z AUTO 06007KT 8SM R25R/5500FT CLR 00/M07 A2983 RMK AO2 SLP107 T00041073

Get Severe Weather Alerts

Thanks for signing up!

Be on the lookout for a verification email in your inbox.

You'll start receiving the daily forecast at 8 AM.

×

10-Day Weather Forecast

Almanac

Astronomy

Apr. 23, 2017 Rise Set
Actual Time
Civil Twilight
Nautical Twilight
Astronomical Twilight
Moon
Length of Visible Light
Length of Day
Tomorrow will be .
, % of the Moon is Illuminated

Today's Extremes

State Highs State Lows

Community

WunderPhotos

WunderBlog® & News

Nearby

Air Quality

  Air Quality AQ Index Pollutant
Not available.

Snow Depth

Station Depth Elevation

Earthquake Activity

City Distance Mag. Time & Date
Minimum magnitude displayed is 2.5.

Coastal Water Temperatures

Place Temperature

Stations

Nearby Weather Stations

Station Location Temp. Windchill Dew Point Humidity Wind Precip. Elev Updated Type
                   

Watches & Warnings

There are currently no watches in effect.